sensor_id;sensor_type;location;lat;lon;timestamp;P1;durP1;ratioP1;P2;durP2;ratioP2
16775;SDS011;8505;49.456;8.164;2022-09-06T09:16:05;4.82;;;2.47;;
16775;SDS011;8505;49.456;8.164;2022-09-06T09:18:36;6.25;;;3.22;;
16775;SDS011;8505;49.456;8.164;2022-09-06T09:21:05;4.75;;;2.85;;
16775;SDS011;8505;49.456;8.164;2022-09-06T09:23:33;7.47;;;2.70;;
16775;SDS011;8505;49.456;8.164;2022-09-06T09:26:02;6.53;;;3.00;;
16775;SDS011;8505;49.456;8.164;2022-09-06T09:28:34;5.03;;;2.60;;
16775;SDS011;8505;49.456;8.164;2022-09-06T09:31:02;3.85;;;2.65;;
16775;SDS011;8505;49.456;8.164;2022-09-06T09:33:33;6.22;;;2.70;;
16775;SDS011;8505;49.456;8.164;2022-09-06T09:36:04;5.00;;;2.80;;
16775;SDS011;8505;49.456;8.164;2022-09-06T09:38:39;4.63;;;2.90;;
16775;SDS011;8505;49.456;8.164;2022-09-06T09:41:08;5.15;;;2.85;;
16775;SDS011;8505;49.456;8.164;2022-09-06T09:43:55;6.10;;;3.10;;
16775;SDS011;8505;49.456;8.164;2022-09-06T09:46:30;6.90;;;2.90;;
16775;SDS011;8505;49.456;8.164;2022-09-06T09:49:00;5.40;;;3.40;;
16775;SDS011;8505;49.456;8.164;2022-09-06T09:51:31;7.43;;;3.40;;
16775;SDS011;8505;49.456;8.164;2022-09-06T09:54:01;6.27;;;2.93;;
16775;SDS011;8505;49.456;8.164;2022-09-06T09:56:41;5.70;;;2.85;;
16775;SDS011;8505;49.456;8.164;2022-09-06T09:59:21;6.55;;;3.08;;
16775;SDS011;8505;49.456;8.164;2022-09-06T10:01:52;7.05;;;3.10;;
16775;SDS011;8505;49.456;8.164;2022-09-06T10:04:26;6.45;;;3.10;;
16775;SDS011;8505;49.456;8.164;2022-09-06T10:07:12;6.05;;;2.97;;
16775;SDS011;8505;49.456;8.164;2022-09-06T10:09:42;7.20;;;3.23;;
16775;SDS011;8505;49.456;8.164;2022-09-06T10:12:14;4.95;;;3.17;;
16775;SDS011;8505;49.456;8.164;2022-09-06T10:14:46;5.43;;;3.30;;
16775;SDS011;8505;49.456;8.164;2022-09-06T10:17:19;6.97;;;3.47;;
16775;SDS011;8505;49.456;8.164;2022-09-06T10:19:54;6.18;;;3.50;;
16775;SDS011;8505;49.456;8.164;2022-09-06T10:22:23;6.68;;;3.58;;
16775;SDS011;8505;49.456;8.164;2022-09-06T10:28:10;8.23;;;3.67;;
16775;SDS011;8505;49.456;8.164;2022-09-06T10:31:11;5.40;;;3.00;;
16775;SDS011;8505;49.456;8.164;2022-09-06T10:34:09;3.40;;;3.08;;
16775;SDS011;8505;49.456;8.164;2022-09-06T10:36:46;7.68;;;3.17;;
16775;SDS011;8505;49.456;8.164;2022-09-06T10:39:22;5.97;;;2.97;;
16775;SDS011;8505;49.456;8.164;2022-09-06T10:42:01;6.47;;;3.20;;
16775;SDS011;8505;49.456;8.164;2022-09-06T10:44:45;7.03;;;3.47;;
16775;SDS011;8505;49.456;8.164;2022-09-06T10:47:27;5.60;;;3.30;;
16775;SDS011;8505;49.456;8.164;2022-09-06T10:50:01;4.28;;;2.90;;
16775;SDS011;8505;49.456;8.164;2022-09-06T10:52:32;3.75;;;2.85;;
16775;SDS011;8505;49.456;8.164;2022-09-06T10:55:04;4.50;;;3.20;;
16775;SDS011;8505;49.456;8.164;2022-09-06T10:57:37;6.00;;;2.70;;
16775;SDS011;8505;49.456;8.164;2022-09-06T11:00:31;7.25;;;3.00;;
16775;SDS011;8505;49.456;8.164;2022-09-06T11:03:06;5.53;;;3.08;;
16775;SDS011;8505;49.456;8.164;2022-09-06T11:06:02;7.28;;;3.00;;
16775;SDS011;8505;49.456;8.164;2022-09-06T11:08:35;6.85;;;2.90;;
16775;SDS011;8505;49.456;8.164;2022-09-06T11:11:16;7.93;;;3.03;;
16775;SDS011;8505;49.456;8.164;2022-09-06T11:13:48;5.10;;;3.13;;
16775;SDS011;8505;49.456;8.164;2022-09-06T11:16:17;7.47;;;3.27;;
16775;SDS011;8505;49.456;8.164;2022-09-06T11:18:52;5.53;;;3.00;;
16775;SDS011;8505;49.456;8.164;2022-09-06T11:21:39;5.40;;;2.88;;
16775;SDS011;8505;49.456;8.164;2022-09-06T11:24:37;6.53;;;3.30;;
16775;SDS011;8505;49.456;8.164;2022-09-06T11:27:18;5.68;;;2.90;;
16775;SDS011;8505;49.456;8.164;2022-09-06T11:29:54;7.47;;;2.92;;
16775;SDS011;8505;49.456;8.164;2022-09-06T11:32:26;7.28;;;3.00;;
16775;SDS011;8505;49.456;8.164;2022-09-06T11:35:00;6.75;;;3.05;;
16775;SDS011;8505;49.456;8.164;2022-09-06T11:37:31;6.80;;;2.78;;
16775;SDS011;8505;49.456;8.164;2022-09-06T11:40:05;8.27;;;3.10;;
16775;SDS011;8505;49.456;8.164;2022-09-06T11:43:08;10.27;;;2.83;;
16775;SDS011;8505;49.456;8.164;2022-09-06T11:45:39;4.47;;;2.95;;
16775;SDS011;8505;49.456;8.164;2022-09-06T11:48:30;6.65;;;2.95;;
16775;SDS011;8505;49.456;8.164;2022-09-06T11:51:02;8.27;;;2.90;;
16775;SDS011;8505;49.456;8.164;2022-09-06T11:53:33;7.55;;;2.97;;
16775;SDS011;8505;49.456;8.164;2022-09-06T11:56:23;6.72;;;3.08;;
16775;SDS011;8505;49.456;8.164;2022-09-06T11:58:56;5.55;;;2.70;;
16775;SDS011;8505;49.456;8.164;2022-09-06T12:01:31;6.97;;;2.55;;
16775;SDS011;8505;49.456;8.164;2022-09-06T12:04:03;5.05;;;2.50;;
16775;SDS011;8505;49.456;8.164;2022-09-06T12:06:37;7.55;;;2.55;;
16775;SDS011;8505;49.456;8.164;2022-09-06T12:09:28;8.27;;;2.40;;
16775;SDS011;8505;49.456;8.164;2022-09-06T12:11:58;6.63;;;2.42;;
16775;SDS011;8505;49.456;8.164;2022-09-06T12:14:30;5.80;;;2.53;;
16775;SDS011;8505;49.456;8.164;2022-09-06T12:17:18;10.32;;;3.00;;
16775;SDS011;8505;49.456;8.164;2022-09-06T12:19:47;7.32;;;2.70;;
16775;SDS011;8505;49.456;8.164;2022-09-06T12:28:34;6.57;;;2.42;;
16775;SDS011;8505;49.456;8.164;2022-09-06T12:31:27;7.28;;;2.85;;
16775;SDS011;8505;49.456;8.164;2022-09-06T12:34:04;8.10;;;2.67;;
16775;SDS011;8505;49.456;8.164;2022-09-06T12:36:34;10.23;;;3.40;;
16775;SDS011;8505;49.456;8.164;2022-09-06T12:39:02;7.15;;;2.53;;
16775;SDS011;8505;49.456;8.164;2022-09-06T12:41:37;5.22;;;2.80;;
16775;SDS011;8505;49.456;8.164;2022-09-06T12:44:09;6.40;;;2.72;;
16775;SDS011;8505;49.456;8.164;2022-09-06T12:46:42;4.82;;;2.60;;
16775;SDS011;8505;49.456;8.164;2022-09-06T12:49:13;8.35;;;2.35;;
16775;SDS011;8505;49.456;8.164;2022-09-06T12:51:44;3.75;;;2.17;;
16775;SDS011;8505;49.456;8.164;2022-09-06T12:54:17;5.63;;;2.22;;
16775;SDS011;8505;49.456;8.164;2022-09-06T12:56:48;6.72;;;2.40;;
16775;SDS011;8505;49.456;8.164;2022-09-06T12:59:17;3.60;;;2.15;;
16775;SDS011;8505;49.456;8.164;2022-09-06T13:01:52;4.43;;;2.30;;
16775;SDS011;8505;49.456;8.164;2022-09-06T13:04:28;6.07;;;2.40;;
16775;SDS011;8505;49.456;8.164;2022-09-06T13:07:00;4.75;;;2.15;;
16775;SDS011;8505;49.456;8.164;2022-09-06T13:09:30;5.45;;;2.53;;
16775;SDS011;8505;49.456;8.164;2022-09-06T13:12:03;5.13;;;2.47;;
16775;SDS011;8505;49.456;8.164;2022-09-06T13:14:34;7.18;;;2.50;;
16775;SDS011;8505;49.456;8.164;2022-09-06T13:17:02;5.65;;;2.40;;
16775;SDS011;8505;49.456;8.164;2022-09-06T13:19:31;6.97;;;2.58;;
16775;SDS011;8505;49.456;8.164;2022-09-06T13:22:01;6.53;;;2.20;;
16775;SDS011;8505;49.456;8.164;2022-09-06T13:24:38;5.45;;;2.35;;
16775;SDS011;8505;49.456;8.164;2022-09-06T13:27:23;6.85;;;2.30;;
16775;SDS011;8505;49.456;8.164;2022-09-06T13:29:53;6.70;;;1.90;;
16775;SDS011;8505;49.456;8.164;2022-09-06T13:32:22;4.70;;;2.20;;
16775;SDS011;8505;49.456;8.164;2022-09-06T13:34:50;4.97;;;2.20;;
16775;SDS011;8505;49.456;8.164;2022-09-06T13:37:22;7.57;;;2.42;;
16775;SDS011;8505;49.456;8.164;2022-09-06T13:39:51;8.45;;;2.40;;
16775;SDS011;8505;49.456;8.164;2022-09-06T13:42:24;5.63;;;1.80;;
16775;SDS011;8505;49.456;8.164;2022-09-06T13:44:54;11.57;;;2.20;;
16775;SDS011;8505;49.456;8.164;2022-09-06T13:47:27;7.70;;;2.13;;
16775;SDS011;8505;49.456;8.164;2022-09-06T13:49:55;6.90;;;1.85;;
16775;SDS011;8505;49.456;8.164;2022-09-06T13:52:22;8.00;;;2.08;;
16775;SDS011;8505;49.456;8.164;2022-09-06T13:54:51;4.90;;;1.65;;
16775;SDS011;8505;49.456;8.164;2022-09-06T13:57:19;7.00;;;1.70;;
16775;SDS011;8505;49.456;8.164;2022-09-06T13:59:51;3.42;;;1.55;;
16775;SDS011;8505;49.456;8.164;2022-09-06T14:02:18;6.78;;;2.00;;
16775;SDS011;8505;49.456;8.164;2022-09-06T14:04:46;7.03;;;1.73;;
16775;SDS011;8505;49.456;8.164;2022-09-06T14:07:14;6.43;;;1.98;;
16775;SDS011;8505;49.456;8.164;2022-09-06T14:09:41;7.35;;;1.77;;
16775;SDS011;8505;49.456;8.164;2022-09-06T14:12:09;8.52;;;3.00;;
16775;SDS011;8505;49.456;8.164;2022-09-06T14:14:37;7.97;;;2.22;;
16775;SDS011;8505;49.456;8.164;2022-09-06T14:17:06;5.55;;;2.25;;
16775;SDS011;8505;49.456;8.164;2022-09-06T14:19:34;6.68;;;2.13;;
16775;SDS011;8505;49.456;8.164;2022-09-06T14:22:02;7.28;;;2.60;;
16775;SDS011;8505;49.456;8.164;2022-09-06T14:24:32;4.85;;;2.20;;
16775;SDS011;8505;49.456;8.164;2022-09-06T14:26:59;4.47;;;2.22;;
16775;SDS011;8505;49.456;8.164;2022-09-06T14:29:27;4.05;;;1.80;;
16775;SDS011;8505;49.456;8.164;2022-09-06T14:31:54;7.72;;;2.17;;
16775;SDS011;8505;49.456;8.164;2022-09-06T14:34:24;7.65;;;2.17;;
16775;SDS011;8505;49.456;8.164;2022-09-06T14:36:51;6.78;;;1.85;;
16775;SDS011;8505;49.456;8.164;2022-09-06T14:39:19;8.55;;;2.70;;
16775;SDS011;8505;49.456;8.164;2022-09-06T14:41:47;6.70;;;1.80;;
16775;SDS011;8505;49.456;8.164;2022-09-06T14:44:15;4.63;;;1.40;;
16775;SDS011;8505;49.456;8.164;2022-09-06T14:46:43;7.43;;;1.52;;
16775;SDS011;8505;49.456;8.164;2022-09-06T14:49:12;6.32;;;1.20;;
16775;SDS011;8505;49.456;8.164;2022-09-06T14:51:42;5.00;;;1.50;;
16775;SDS011;8505;49.456;8.164;2022-09-06T14:54:11;5.18;;;1.45;;
16775;SDS011;8505;49.456;8.164;2022-09-06T14:56:41;3.30;;;1.30;;
16775;SDS011;8505;49.456;8.164;2022-09-06T14:59:09;3.75;;;1.30;;
16775;SDS011;8505;49.456;8.164;2022-09-06T15:01:38;7.05;;;1.55;;
16775;SDS011;8505;49.456;8.164;2022-09-06T15:04:07;5.22;;;1.88;;
16775;SDS011;8505;49.456;8.164;2022-09-06T15:06:36;6.65;;;2.40;;
16775;SDS011;8505;49.456;8.164;2022-09-06T15:09:07;6.53;;;2.50;;
16775;SDS011;8505;49.456;8.164;2022-09-06T15:11:37;12.18;;;3.20;;
16775;SDS011;8505;49.456;8.164;2022-09-06T15:14:07;9.18;;;2.83;;
16775;SDS011;8505;49.456;8.164;2022-09-06T15:16:38;12.48;;;3.55;;
16775;SDS011;8505;49.456;8.164;2022-09-06T15:19:06;22.27;;;6.43;;
16775;SDS011;8505;49.456;8.164;2022-09-06T15:21:35;20.10;;;5.57;;
16775;SDS011;8505;49.456;8.164;2022-09-06T15:24:03;12.80;;;3.75;;
16775;SDS011;8505;49.456;8.164;2022-09-06T15:26:38;8.23;;;3.15;;
16775;SDS011;8505;49.456;8.164;2022-09-06T15:29:07;13.57;;;4.10;;
16775;SDS011;8505;49.456;8.164;2022-09-06T15:31:39;13.27;;;3.80;;
16775;SDS011;8505;49.456;8.164;2022-09-06T15:34:07;11.77;;;3.55;;
16775;SDS011;8505;49.456;8.164;2022-09-06T15:36:37;9.43;;;3.22;;
16775;SDS011;8505;49.456;8.164;2022-09-06T15:39:05;6.30;;;2.63;;
16775;SDS011;8505;49.456;8.164;2022-09-06T15:41:34;8.35;;;2.80;;
16775;SDS011;8505;49.456;8.164;2022-09-06T15:44:07;8.00;;;2.70;;
16775;SDS011;8505;49.456;8.164;2022-09-06T15:46:39;5.97;;;2.63;;
16775;SDS011;8505;49.456;8.164;2022-09-06T15:49:10;5.32;;;2.60;;
16775;SDS011;8505;49.456;8.164;2022-09-06T15:51:40;10.40;;;3.10;;
16775;SDS011;8505;49.456;8.164;2022-09-06T15:54:08;7.47;;;2.80;;
16775;SDS011;8505;49.456;8.164;2022-09-06T15:56:37;8.02;;;3.08;;
16775;SDS011;8505;49.456;8.164;2022-09-06T15:59:06;10.93;;;3.03;;
16775;SDS011;8505;49.456;8.164;2022-09-06T16:01:34;9.48;;;3.25;;
16775;SDS011;8505;49.456;8.164;2022-09-06T16:04:03;11.70;;;3.45;;
16775;SDS011;8505;49.456;8.164;2022-09-06T16:06:33;8.30;;;3.40;;
16775;SDS011;8505;49.456;8.164;2022-09-06T16:09:04;8.65;;;3.45;;
16775;SDS011;8505;49.456;8.164;2022-09-06T16:11:33;9.27;;;3.60;;
16775;SDS011;8505;49.456;8.164;2022-09-06T16:14:02;11.68;;;4.18;;
16775;SDS011;8505;49.456;8.164;2022-09-06T16:16:32;12.15;;;4.00;;
16775;SDS011;8505;49.456;8.164;2022-09-06T16:19:00;10.50;;;3.85;;
16775;SDS011;8505;49.456;8.164;2022-09-06T16:21:29;7.63;;;3.80;;
16775;SDS011;8505;49.456;8.164;2022-09-06T16:23:58;9.93;;;4.80;;
16775;SDS011;8505;49.456;8.164;2022-09-06T16:26:28;8.30;;;4.15;;
16775;SDS011;8505;49.456;8.164;2022-09-06T16:28:58;9.05;;;3.72;;
16775;SDS011;8505;49.456;8.164;2022-09-06T16:31:27;8.25;;;3.70;;
16775;SDS011;8505;49.456;8.164;2022-09-06T16:33:56;10.85;;;3.90;;
16775;SDS011;8505;49.456;8.164;2022-09-06T16:36:24;8.98;;;3.45;;
16775;SDS011;8505;49.456;8.164;2022-09-06T16:38:53;10.00;;;3.60;;
16775;SDS011;8505;49.456;8.164;2022-09-06T16:41:23;7.57;;;3.27;;
16775;SDS011;8505;49.456;8.164;2022-09-06T16:43:52;7.57;;;3.22;;
16775;SDS011;8505;49.456;8.164;2022-09-06T16:46:21;7.95;;;3.00;;
16775;SDS011;8505;49.456;8.164;2022-09-06T16:48:51;7.43;;;3.00;;
16775;SDS011;8505;49.456;8.164;2022-09-06T16:51:21;5.10;;;2.80;;
16775;SDS011;8505;49.456;8.164;2022-09-06T16:53:50;8.17;;;2.90;;
16775;SDS011;8505;49.456;8.164;2022-09-06T16:56:19;6.15;;;3.00;;
16775;SDS011;8505;49.456;8.164;2022-09-06T16:58:51;8.15;;;3.45;;
16775;SDS011;8505;49.456;8.164;2022-09-06T17:01:20;7.60;;;3.67;;
16775;SDS011;8505;49.456;8.164;2022-09-06T17:03:48;7.18;;;3.30;;
16775;SDS011;8505;49.456;8.164;2022-09-06T17:06:16;7.03;;;3.50;;
16775;SDS011;8505;49.456;8.164;2022-09-06T17:08:47;8.95;;;4.00;;
16775;SDS011;8505;49.456;8.164;2022-09-06T17:11:15;8.30;;;4.00;;
16775;SDS011;8505;49.456;8.164;2022-09-06T17:13:46;7.88;;;4.25;;
16775;SDS011;8505;49.456;8.164;2022-09-06T17:16:15;8.38;;;4.30;;
16775;SDS011;8505;49.456;8.164;2022-09-06T17:19:02;7.07;;;4.70;;
16775;SDS011;8505;49.456;8.164;2022-09-06T17:21:31;9.02;;;5.07;;
16775;SDS011;8505;49.456;8.164;2022-09-06T17:24:01;8.13;;;4.88;;
16775;SDS011;8505;49.456;8.164;2022-09-06T17:26:31;7.70;;;5.30;;
16775;SDS011;8505;49.456;8.164;2022-09-06T17:29:00;8.57;;;5.15;;
16775;SDS011;8505;49.456;8.164;2022-09-06T17:31:28;8.68;;;4.82;;
16775;SDS011;8505;49.456;8.164;2022-09-06T17:33:57;9.75;;;4.95;;
16775;SDS011;8505;49.456;8.164;2022-09-06T17:36:26;8.25;;;5.00;;
16775;SDS011;8505;49.456;8.164;2022-09-06T17:38:59;8.50;;;5.10;;
16775;SDS011;8505;49.456;8.164;2022-09-06T17:41:31;7.32;;;5.35;;
16775;SDS011;8505;49.456;8.164;2022-09-06T17:44:02;9.40;;;5.55;;
16775;SDS011;8505;49.456;8.164;2022-09-06T17:46:30;8.70;;;5.40;;
16775;SDS011;8505;49.456;8.164;2022-09-06T17:48:58;10.35;;;5.40;;
16775;SDS011;8505;49.456;8.164;2022-09-06T17:51:26;10.18;;;5.30;;
16775;SDS011;8505;49.456;8.164;2022-09-06T17:53:54;8.87;;;5.23;;
16775;SDS011;8505;49.456;8.164;2022-09-06T17:56:24;9.98;;;5.40;;
16775;SDS011;8505;49.456;8.164;2022-09-06T17:58:53;8.48;;;5.05;;
16775;SDS011;8505;49.456;8.164;2022-09-06T18:01:23;9.60;;;5.30;;
16775;SDS011;8505;49.456;8.164;2022-09-06T18:03:52;7.10;;;5.30;;
16775;SDS011;8505;49.456;8.164;2022-09-06T18:06:21;7.43;;;5.28;;
16775;SDS011;8505;49.456;8.164;2022-09-06T18:08:51;9.82;;;5.60;;
16775;SDS011;8505;49.456;8.164;2022-09-06T18:11:20;8.57;;;5.70;;
16775;SDS011;8505;49.456;8.164;2022-09-06T18:13:55;8.32;;;5.57;;
16775;SDS011;8505;49.456;8.164;2022-09-06T18:16:24;11.68;;;5.80;;
16775;SDS011;8505;49.456;8.164;2022-09-06T18:18:53;8.77;;;5.97;;
16775;SDS011;8505;49.456;8.164;2022-09-06T18:21:22;8.48;;;5.78;;
16775;SDS011;8505;49.456;8.164;2022-09-06T18:23:51;8.65;;;5.40;;
16775;SDS011;8505;49.456;8.164;2022-09-06T18:26:19;7.80;;;5.40;;
16775;SDS011;8505;49.456;8.164;2022-09-06T18:28:47;8.23;;;5.75;;
16775;SDS011;8505;49.456;8.164;2022-09-06T18:31:17;9.50;;;5.60;;
16775;SDS011;8505;49.456;8.164;2022-09-06T18:33:47;8.63;;;5.25;;
16775;SDS011;8505;49.456;8.164;2022-09-06T18:36:15;10.03;;;4.60;;
16775;SDS011;8505;49.456;8.164;2022-09-06T18:38:44;7.38;;;4.63;;
16775;SDS011;8505;49.456;8.164;2022-09-06T18:41:13;6.97;;;4.32;;
16775;SDS011;8505;49.456;8.164;2022-09-06T18:43:56;7.50;;;3.70;;
16775;SDS011;8505;49.456;8.164;2022-09-06T18:46:29;6.32;;;3.53;;
16775;SDS011;8505;49.456;8.164;2022-09-06T18:48:58;7.88;;;3.60;;
16775;SDS011;8505;49.456;8.164;2022-09-06T18:51:26;7.25;;;3.65;;
16775;SDS011;8505;49.456;8.164;2022-09-06T18:53:54;6.63;;;3.60;;
16775;SDS011;8505;49.456;8.164;2022-09-06T18:56:23;7.93;;;4.40;;
16775;SDS011;8505;49.456;8.164;2022-09-06T18:58:53;9.82;;;4.05;;
16775;SDS011;8505;49.456;8.164;2022-09-06T19:01:23;9.88;;;4.15;;
16775;SDS011;8505;49.456;8.164;2022-09-06T19:03:56;11.70;;;6.53;;
16775;SDS011;8505;49.456;8.164;2022-09-06T19:06:24;8.80;;;4.50;;
16775;SDS011;8505;49.456;8.164;2022-09-06T19:08:56;9.05;;;4.90;;
16775;SDS011;8505;49.456;8.164;2022-09-06T19:11:25;10.77;;;5.40;;
16775;SDS011;8505;49.456;8.164;2022-09-06T19:13:54;8.88;;;5.40;;
16775;SDS011;8505;49.456;8.164;2022-09-06T19:16:23;9.93;;;5.40;;
16775;SDS011;8505;49.456;8.164;2022-09-06T19:18:53;8.63;;;5.53;;
16775;SDS011;8505;49.456;8.164;2022-09-06T19:21:23;12.37;;;5.33;;
16775;SDS011;8505;49.456;8.164;2022-09-06T19:23:53;8.32;;;5.10;;
16775;SDS011;8505;49.456;8.164;2022-09-06T19:26:23;10.20;;;5.15;;
16775;SDS011;8505;49.456;8.164;2022-09-06T19:28:53;7.45;;;4.90;;
16775;SDS011;8505;49.456;8.164;2022-09-06T19:31:23;9.15;;;5.50;;
16775;SDS011;8505;49.456;8.164;2022-09-06T19:33:53;9.87;;;5.50;;
16775;SDS011;8505;49.456;8.164;2022-09-06T19:36:23;7.85;;;5.03;;
16775;SDS011;8505;49.456;8.164;2022-09-06T19:38:53;10.15;;;5.22;;
16775;SDS011;8505;49.456;8.164;2022-09-06T19:41:32;10.35;;;4.65;;
16775;SDS011;8505;49.456;8.164;2022-09-06T19:44:01;9.88;;;5.13;;
16775;SDS011;8505;49.456;8.164;2022-09-06T19:46:30;7.72;;;5.10;;
16775;SDS011;8505;49.456;8.164;2022-09-06T20:01:24;8.80;;;4.38;;
16775;SDS011;8505;49.456;8.164;2022-09-06T20:03:54;8.27;;;4.72;;
16775;SDS011;8505;49.456;8.164;2022-09-06T20:08:53;9.20;;;6.05;;
16775;SDS011;8505;49.456;8.164;2022-09-06T20:11:22;11.38;;;6.05;;
16775;SDS011;8505;49.456;8.164;2022-09-06T20:13:51;10.15;;;5.38;;
16775;SDS011;8505;49.456;8.164;2022-09-06T20:16:19;8.57;;;5.57;;
16775;SDS011;8505;49.456;8.164;2022-09-06T20:18:50;9.32;;;5.00;;
16775;SDS011;8505;49.456;8.164;2022-09-06T20:58:38;11.63;;;6.05;;
16775;SDS011;8505;49.456;8.164;2022-09-06T21:01:08;11.33;;;6.60;;
16775;SDS011;8505;49.456;8.164;2022-09-06T21:03:40;10.38;;;6.05;;
16775;SDS011;8505;49.456;8.164;2022-09-06T21:06:09;10.73;;;5.88;;
16775;SDS011;8505;49.456;8.164;2022-09-06T21:08:38;7.45;;;5.53;;
16775;SDS011;8505;49.456;8.164;2022-09-06T21:11:09;8.48;;;5.80;;
16775;SDS011;8505;49.456;8.164;2022-09-06T21:13:37;9.60;;;5.60;;
16775;SDS011;8505;49.456;8.164;2022-09-06T21:16:09;11.30;;;6.07;;
16775;SDS011;8505;49.456;8.164;2022-09-06T21:18:37;9.73;;;6.28;;
16775;SDS011;8505;49.456;8.164;2022-09-06T21:21:05;11.73;;;6.47;;
16775;SDS011;8505;49.456;8.164;2022-09-06T21:23:35;10.02;;;6.00;;
16775;SDS011;8505;49.456;8.164;2022-09-06T21:26:04;9.50;;;5.95;;
16775;SDS011;8505;49.456;8.164;2022-09-06T21:28:34;9.88;;;6.25;;
16775;SDS011;8505;49.456;8.164;2022-09-06T21:31:04;12.90;;;6.45;;
16775;SDS011;8505;49.456;8.164;2022-09-06T21:33:35;9.77;;;5.85;;
16775;SDS011;8505;49.456;8.164;2022-09-06T21:36:06;10.07;;;6.07;;
16775;SDS011;8505;49.456;8.164;2022-09-06T21:38:59;10.63;;;5.97;;
16775;SDS011;8505;49.456;8.164;2022-09-06T21:41:29;12.57;;;5.88;;
16775;SDS011;8505;49.456;8.164;2022-09-06T21:43:59;8.75;;;6.13;;
16775;SDS011;8505;49.456;8.164;2022-09-06T21:46:29;14.05;;;6.28;;
16775;SDS011;8505;49.456;8.164;2022-09-06T21:49:00;9.80;;;5.70;;
16775;SDS011;8505;49.456;8.164;2022-09-06T21:51:30;11.82;;;5.65;;
16775;SDS011;8505;49.456;8.164;2022-09-06T21:53:58;12.32;;;5.90;;
16775;SDS011;8505;49.456;8.164;2022-09-06T21:56:31;11.40;;;5.60;;
16775;SDS011;8505;49.456;8.164;2022-09-06T21:58:59;14.65;;;5.88;;
16775;SDS011;8505;49.456;8.164;2022-09-06T22:01:29;9.88;;;5.50;;
16775;SDS011;8505;49.456;8.164;2022-09-06T22:03:59;11.27;;;5.68;;
16775;SDS011;8505;49.456;8.164;2022-09-06T22:06:29;11.35;;;6.10;;
16775;SDS011;8505;49.456;8.164;2022-09-06T22:08:59;7.75;;;6.20;;
16775;SDS011;8505;49.456;8.164;2022-09-06T22:11:29;8.00;;;5.80;;
16775;SDS011;8505;49.456;8.164;2022-09-06T22:13:58;8.13;;;5.18;;
16775;SDS011;8505;49.456;8.164;2022-09-06T22:16:26;10.50;;;5.78;;
16775;SDS011;8505;49.456;8.164;2022-09-06T22:18:55;10.98;;;5.28;;
16775;SDS011;8505;49.456;8.164;2022-09-06T22:21:24;10.95;;;5.20;;
16775;SDS011;8505;49.456;8.164;2022-09-06T22:23:54;10.82;;;5.28;;
16775;SDS011;8505;49.456;8.164;2022-09-06T22:26:24;8.25;;;5.55;;
16775;SDS011;8505;49.456;8.164;2022-09-06T22:28:53;7.82;;;5.60;;
16775;SDS011;8505;49.456;8.164;2022-09-06T22:31:22;6.20;;;4.78;;
